createdAt,value
2018-05-04T00:02:13.574Z,8.00
2018-05-04T00:04:41.805Z,8.00
2018-05-04T00:07:10.455Z,8.00
2018-05-04T00:09:38.808Z,7.90
2018-05-04T00:12:06.348Z,7.90
2018-05-04T00:14:34.295Z,7.90
2018-05-04T00:17:03.944Z,7.90
2018-05-04T00:19:31.521Z,7.60
2018-05-04T00:21:59.059Z,7.40
2018-05-04T00:24:27.453Z,7.30
2018-05-04T00:26:56.065Z,7.20
2018-05-04T00:31:54.449Z,7.10
2018-05-04T00:34:22.940Z,7.10
2018-05-04T00:36:51.034Z,7.10
2018-05-04T00:39:18.614Z,7.10
2018-05-04T00:41:46.523Z,7.00
2018-05-04T00:44:14.415Z,7.00
2018-05-04T00:46:42.734Z,7.00
2018-05-04T00:49:13.337Z,6.90
2018-05-04T00:51:43.731Z,7.00
2018-05-04T00:54:23.064Z,7.00
2018-05-04T00:56:51.374Z,6.90
2018-05-04T00:59:20.352Z,7.00
2018-05-04T01:01:47.896Z,7.20
2018-05-04T01:04:19.485Z,7.30
2018-05-04T01:06:47.007Z,7.30
2018-05-04T01:09:14.557Z,7.40
2018-05-04T01:11:42.053Z,7.40
2018-05-04T01:14:09.576Z,7.40
2018-05-04T01:16:37.163Z,7.30
2018-05-04T01:19:05.454Z,7.20
2018-05-04T01:21:33.215Z,7.00
2018-05-04T01:24:01.523Z,7.00
2018-05-04T01:26:29.236Z,7.00
2018-05-04T01:28:59.212Z,6.90
2018-05-04T01:31:27.330Z,6.90
2018-05-04T01:33:55.477Z,6.80
2018-05-04T01:36:23.481Z,6.80
2018-05-04T01:38:51.118Z,6.80
2018-05-04T01:41:19.305Z,6.80
2018-05-04T01:43:46.896Z,6.80
2018-05-04T01:46:16.196Z,6.80
2018-05-04T01:48:45.965Z,6.70
2018-05-04T01:51:15.769Z,6.70
2018-05-04T01:53:43.797Z,6.70
2018-05-04T01:56:13.515Z,6.70
2018-05-04T01:58:42.057Z,6.60
2018-05-04T02:01:13.486Z,6.60
2018-05-04T02:03:41.558Z,6.50
2018-05-04T02:06:09.047Z,6.50
2018-05-04T02:08:36.614Z,6.50
2018-05-04T02:11:04.886Z,6.50
2018-05-04T02:13:32.800Z,6.30
2018-05-04T02:16:00.452Z,6.30
2018-05-04T02:18:28.762Z,6.40
2018-05-04T02:20:59.267Z,6.30
2018-05-04T02:23:28.715Z,6.20
2018-05-04T02:25:56.999Z,6.20
2018-05-04T02:28:25.347Z,6.20
2018-05-04T02:30:54.243Z,6.20
2018-05-04T02:33:23.539Z,6.10
2018-05-04T02:35:51.501Z,6.10
2018-05-04T02:38:28.944Z,6.10
2018-05-04T02:41:03.543Z,6.00
2018-05-04T02:43:31.433Z,6.00
2018-05-04T02:46:00.173Z,5.90
2018-05-04T02:48:28.341Z,5.90
2018-05-04T02:50:56.756Z,5.90
2018-05-04T02:53:28.442Z,5.80
2018-05-04T02:55:56.035Z,5.70
2018-05-04T02:58:25.029Z,5.80
2018-05-04T03:00:53.776Z,5.70
2018-05-04T03:03:22.058Z,5.70
2018-05-04T03:05:51.624Z,5.60
2018-05-04T03:08:20.527Z,5.60
2018-05-04T03:10:48.088Z,5.60
2018-05-04T03:13:18.293Z,5.60
2018-05-04T03:15:47.684Z,5.80
2018-05-04T03:18:15.521Z,5.80
2018-05-04T03:20:43.186Z,5.90
2018-05-04T03:23:11.969Z,5.90
2018-05-04T03:25:40.331Z,6.00
2018-05-04T03:28:07.865Z,5.90
2018-05-04T03:30:35.410Z,5.80
2018-05-04T03:33:04.212Z,5.80
2018-05-04T03:35:31.814Z,5.90
2018-05-04T03:38:00.134Z,5.80
2018-05-04T03:40:27.812Z,5.70
2018-05-04T03:42:56.310Z,5.50
2018-05-04T03:45:23.929Z,5.50
2018-05-04T03:47:51.559Z,5.40
2018-05-04T03:50:19.559Z,5.30
2018-05-04T03:52:47.145Z,5.30
2018-05-04T03:55:14.677Z,5.30
2018-05-04T03:57:55.014Z,5.30
2018-05-04T04:00:34.322Z,5.20
2018-05-04T04:03:14.568Z,5.20
2018-05-04T04:05:42.070Z,5.20
2018-05-04T04:08:09.580Z,5.10
2018-05-04T04:10:37.100Z,5.20
2018-05-04T04:13:05.471Z,5.10
2018-05-04T04:15:33.090Z,5.10
2018-05-04T04:18:00.756Z,5.10
2018-05-04T04:20:29.016Z,5.10
2018-05-04T04:22:56.961Z,5.10
2018-05-04T04:27:54.191Z,5.30
2018-05-04T04:30:21.744Z,5.30
2018-05-04T04:32:49.302Z,5.30
2018-05-04T04:35:17.643Z,5.30
2018-05-04T04:37:46.211Z,5.40
2018-05-04T04:40:13.831Z,5.40
2018-05-04T04:42:42.296Z,5.40
2018-05-04T04:45:09.928Z,5.50
2018-05-04T04:47:38.296Z,5.70
2018-05-04T04:50:05.846Z,6.00
2018-05-04T04:52:33.336Z,6.00
2018-05-04T04:55:00.832Z,6.00
2018-05-04T04:57:28.346Z,6.00
2018-05-04T04:59:55.923Z,6.00
2018-05-04T05:02:23.576Z,5.90
2018-05-04T05:04:51.252Z,6.20
2018-05-04T05:07:19.571Z,6.20
2018-05-04T05:09:47.113Z,6.30
2018-05-04T05:12:14.616Z,6.30
2018-05-04T05:14:42.936Z,6.40
2018-05-04T05:17:11.260Z,6.50
2018-05-04T05:19:38.768Z,6.60
2018-05-04T05:22:06.332Z,6.80
2018-05-04T05:24:33.814Z,6.90
2018-05-04T05:27:01.713Z,6.90
2018-05-04T05:29:29.835Z,7.00
2018-05-04T05:31:58.126Z,7.20
2018-05-04T05:34:25.637Z,7.40
2018-05-04T05:36:53.540Z,7.60
2018-05-04T05:39:21.890Z,7.70
2018-05-04T05:41:49.418Z,7.60
2018-05-04T05:44:16.940Z,7.70
2018-05-04T05:46:44.497Z,7.90
2018-05-04T05:49:12.267Z,7.90
2018-05-04T05:51:40.198Z,8.00
2018-05-04T05:54:07.784Z,8.10
2018-05-04T05:56:35.453Z,8.20
2018-05-04T05:59:03.256Z,8.30
2018-05-04T06:01:30.836Z,8.50
2018-05-04T06:03:58.388Z,8.40
2018-05-04T06:06:26.404Z,8.60
2018-05-04T06:08:54.710Z,8.70
2018-05-04T06:11:23.115Z,8.80
2018-05-04T06:13:51.101Z,8.80
2018-05-04T06:16:18.700Z,8.90
2018-05-04T06:18:46.297Z,9.00
2018-05-04T06:21:14.600Z,9.10
2018-05-04T06:23:42.251Z,9.20
2018-05-04T06:26:09.791Z,9.30
2018-05-04T06:28:37.329Z,9.40
2018-05-04T06:31:05.665Z,9.50
2018-05-04T06:33:33.302Z,9.70
2018-05-04T06:36:00.921Z,9.60
2018-05-04T06:38:29.207Z,9.80
2018-05-04T06:40:56.710Z,10.00
2018-05-04T06:43:24.290Z,10.10
2018-05-04T06:45:51.887Z,9.90
2018-05-04T06:48:19.407Z,10.10
2018-05-04T06:50:46.932Z,10.20
2018-05-04T06:53:14.459Z,10.40
2018-05-04T06:55:41.984Z,10.60
2018-05-04T06:58:09.554Z,10.50
2018-05-04T07:00:37.501Z,10.20
2018-05-04T07:03:05.025Z,10.70
2018-05-04T07:05:32.542Z,10.90
2018-05-04T07:08:00.103Z,11.00
2018-05-04T07:10:27.711Z,11.10
2018-05-04T07:12:56.387Z,11.00
2018-05-04T07:15:24.316Z,11.40
2018-05-04T07:17:52.283Z,11.40
2018-05-04T07:20:19.789Z,11.50
2018-05-04T07:22:48.485Z,11.60
2018-05-04T07:25:16.021Z,11.60
2018-05-04T07:27:43.569Z,11.80
2018-05-04T07:30:11.151Z,11.90
2018-05-04T07:32:38.784Z,12.30
2018-05-04T07:35:07.058Z,12.50
2018-05-04T07:37:35.332Z,13.10
2018-05-04T07:40:02.846Z,13.60
2018-05-04T07:42:30.431Z,13.40
2018-05-04T07:44:58.034Z,13.20
2018-05-04T07:47:26.338Z,13.50
2018-05-04T07:49:53.850Z,13.80
2018-05-04T07:52:21.391Z,13.90
2018-05-04T07:54:49.661Z,13.90
2018-05-04T07:57:17.239Z,14.20
2018-05-04T07:59:45.616Z,14.60
2018-05-04T08:02:13.982Z,15.30
2018-05-04T08:04:42.373Z,15.70
2018-05-04T08:07:10.366Z,16.20
2018-05-04T08:09:37.894Z,15.70
2018-05-04T08:12:06.548Z,15.70
2018-05-04T08:14:34.831Z,14.90
2018-05-04T08:17:02.340Z,15.50
2018-05-04T08:19:30.707Z,16.10
2018-05-04T08:21:58.319Z,16.70
2018-05-04T08:24:25.913Z,16.90
2018-05-04T08:26:53.413Z,16.10
2018-05-04T08:29:21.687Z,16.50
2018-05-04T08:31:49.664Z,15.70
2018-05-04T08:34:17.977Z,16.50
2018-05-04T08:36:46.248Z,17.30
2018-05-04T08:39:14.590Z,17.80
2018-05-04T08:41:42.134Z,17.80
2018-05-04T08:44:09.698Z,17.70
2018-05-04T08:46:37.269Z,17.20
2018-05-04T08:49:04.776Z,16.00
2018-05-04T08:51:32.326Z,17.50
2018-05-04T08:54:00.109Z,18.00
2018-05-04T08:56:28.392Z,18.10
2018-05-04T08:58:55.917Z,18.00
2018-05-04T09:01:24.331Z,17.90
2018-05-04T09:03:51.865Z,17.80
2018-05-04T09:06:19.559Z,17.60
2018-05-04T09:08:47.876Z,18.00
2018-05-04T09:11:15.419Z,18.80
2018-05-04T09:13:43.889Z,18.30
2018-05-04T09:16:12.403Z,18.30
2018-05-04T09:18:39.994Z,17.70
2018-05-04T09:21:07.521Z,19.00
2018-05-04T09:23:35.061Z,19.60
2018-05-04T09:26:02.996Z,19.50
2018-05-04T09:28:30.503Z,18.90
2018-05-04T09:30:58.083Z,18.60
2018-05-04T09:33:26.002Z,19.60
2018-05-04T09:35:53.507Z,19.60
2018-05-04T09:38:21.045Z,19.30
2018-05-04T09:40:49.796Z,19.80
2018-05-04T09:43:17.595Z,19.30
2018-05-04T09:45:45.126Z,20.00
2018-05-04T09:48:12.632Z,19.60
2018-05-04T09:50:40.332Z,20.20
2018-05-04T09:53:08.032Z,19.80
2018-05-04T09:55:35.691Z,20.70
2018-05-04T09:58:03.292Z,20.20
2018-05-04T10:00:31.016Z,20.50
2018-05-04T10:02:58.719Z,20.60
2018-05-04T10:05:31.261Z,21.40
2018-05-04T10:08:00.258Z,22.00
2018-05-04T10:10:28.060Z,20.40
2018-05-04T10:12:55.714Z,20.30
2018-05-04T10:15:24.784Z,20.20
2018-05-04T10:17:54.341Z,21.30
2018-05-04T10:20:22.417Z,21.50
2018-05-04T10:22:50.626Z,21.50
2018-05-04T10:25:18.221Z,21.40
2018-05-04T10:27:45.796Z,21.60
2018-05-04T10:30:13.436Z,21.70
2018-05-04T10:32:41.441Z,21.90
2018-05-04T10:35:08.980Z,21.90
2018-05-04T10:37:37.401Z,22.10
2018-05-04T10:40:05.704Z,22.20
2018-05-04T10:42:33.219Z,22.90
2018-05-04T10:45:02.346Z,22.20
2018-05-04T10:47:29.971Z,22.20
2018-05-04T10:49:58.281Z,22.00
2018-05-04T10:52:26.275Z,21.70
2018-05-04T10:54:55.958Z,21.70
2018-05-04T10:57:24.048Z,22.30
2018-05-04T10:59:51.823Z,22.10
2018-05-04T11:02:19.467Z,22.30
2018-05-04T11:04:47.746Z,23.70
2018-05-04T11:07:16.090Z,23.90
2018-05-04T11:09:43.684Z,23.20
2018-05-04T11:12:12.065Z,21.80
2018-05-04T11:14:40.011Z,23.00
2018-05-04T11:17:07.596Z,23.20
2018-05-04T11:19:35.179Z,24.10
2018-05-04T11:22:03.612Z,24.80
2018-05-04T11:24:31.966Z,23.30
2018-05-04T11:27:00.240Z,23.40
2018-05-04T11:29:27.729Z,23.70
2018-05-04T11:31:56.595Z,23.30
2018-05-04T11:34:24.172Z,23.10
2018-05-04T11:36:52.093Z,23.80
2018-05-04T11:39:19.623Z,23.80
2018-05-04T11:41:47.152Z,24.10
2018-05-04T11:44:14.730Z,24.20
2018-05-04T11:46:42.672Z,23.10
2018-05-04T11:49:10.189Z,24.10
2018-05-04T11:51:39.515Z,23.20
2018-05-04T11:54:07.475Z,25.60
2018-05-04T11:56:34.978Z,25.10
2018-05-04T11:59:02.518Z,23.80
2018-05-04T12:01:30.077Z,24.00
2018-05-04T12:03:57.603Z,24.50
2018-05-04T12:06:25.487Z,24.40
2018-05-04T12:08:53.690Z,24.30
2018-05-04T12:11:21.273Z,24.20
2018-05-04T12:13:48.848Z,23.90
2018-05-04T12:16:16.867Z,23.90
2018-05-04T12:18:45.909Z,23.70
2018-05-04T12:21:14.194Z,24.60
2018-05-04T12:23:42.885Z,25.00
2018-05-04T12:26:11.186Z,24.70
2018-05-04T12:28:38.768Z,24.60
2018-05-04T12:31:06.312Z,25.70
2018-05-04T12:33:34.622Z,25.80
2018-05-04T12:36:02.138Z,25.90
2018-05-04T12:38:29.680Z,22.90
2018-05-04T12:40:57.253Z,24.60
2018-05-04T12:43:25.237Z,25.40
2018-05-04T12:45:53.537Z,26.20
2018-05-04T12:48:21.507Z,25.00
2018-05-04T12:50:49.845Z,26.00
2018-05-04T12:53:18.157Z,27.10
2018-05-04T12:55:45.770Z,26.00
2018-05-04T13:00:43.044Z,25.00
2018-05-04T13:03:10.633Z,25.20
2018-05-04T13:10:36.596Z,26.80
2018-05-04T13:13:05.063Z,25.70
2018-05-04T13:15:32.592Z,25.30
2018-05-04T13:18:00.111Z,25.20
2018-05-04T13:20:29.263Z,24.80
2018-05-04T13:22:56.786Z,26.60
2018-05-04T13:25:24.290Z,25.40
2018-05-04T13:27:51.777Z,26.40
2018-05-04T13:30:19.788Z,26.80
2018-05-04T13:35:17.364Z,26.80
2018-05-04T13:37:45.738Z,27.30
2018-05-04T13:40:13.568Z,27.80
2018-05-04T13:42:41.927Z,26.70
2018-05-04T13:45:09.917Z,27.60
2018-05-04T13:47:37.464Z,26.80
2018-05-04T13:50:06.564Z,26.90
2018-05-04T13:55:03.109Z,25.20
2018-05-04T13:57:30.611Z,26.40
2018-05-04T13:59:58.203Z,27.00
2018-05-04T14:02:26.509Z,26.10
2018-05-04T14:04:54.812Z,25.80
2018-05-04T14:07:22.852Z,26.00
2018-05-04T14:09:51.944Z,27.00
2018-05-04T14:12:19.484Z,26.40
2018-05-04T14:14:47.400Z,27.00
2018-05-04T14:17:14.989Z,27.30
2018-05-04T14:19:42.898Z,26.50
2018-05-04T14:22:10.834Z,27.10
2018-05-04T14:24:38.731Z,27.20
2018-05-04T14:27:07.830Z,27.30
2018-05-04T14:29:36.141Z,27.80
2018-05-04T14:32:05.182Z,26.60
2018-05-04T14:34:32.754Z,27.70
2018-05-04T14:37:00.347Z,28.10
2018-05-04T14:39:27.934Z,28.20
2018-05-04T14:41:56.959Z,29.20
2018-05-04T14:44:24.791Z,27.70
2018-05-04T14:46:52.377Z,27.70
2018-05-04T14:49:20.760Z,26.70
2018-05-04T14:51:48.254Z,27.20
2018-05-04T14:54:16.532Z,26.10
2018-05-04T14:56:44.783Z,27.10
2018-05-04T14:59:12.297Z,27.20
2018-05-04T15:01:40.057Z,28.30
2018-05-04T15:04:07.616Z,27.90
2018-05-04T15:06:35.155Z,26.50
2018-05-04T15:09:03.129Z,27.70
2018-05-04T15:11:30.632Z,26.60
2018-05-04T15:13:58.532Z,26.60
2018-05-04T15:16:26.898Z,26.40
2018-05-04T15:18:55.403Z,25.90
2018-05-04T15:21:23.766Z,25.90
2018-05-04T15:23:51.329Z,26.60
2018-05-04T15:26:18.846Z,25.90
2018-05-04T15:28:47.123Z,25.90
2018-05-04T15:31:14.621Z,26.10
2018-05-04T15:33:42.514Z,27.30
2018-05-04T15:36:10.056Z,27.60
2018-05-04T15:38:38.360Z,27.50
2018-05-04T15:41:06.158Z,28.80
2018-05-04T15:43:33.681Z,27.50
2018-05-04T15:46:02.188Z,26.60
2018-05-04T15:48:35.407Z,27.10
2018-05-04T15:51:08.511Z,27.20
2018-05-04T15:56:06.363Z,25.90
2018-05-04T15:58:33.869Z,25.80
2018-05-04T16:01:02.175Z,25.00
2018-05-04T16:03:30.370Z,25.60
2018-05-04T16:05:58.692Z,25.50
2018-05-04T16:08:26.985Z,25.80
2018-05-04T16:10:54.487Z,26.70
2018-05-04T16:13:22.068Z,25.80
2018-05-04T16:15:50.350Z,27.00
2018-05-04T16:18:17.867Z,26.90
2018-05-04T16:20:45.373Z,25.20
2018-05-04T16:23:13.652Z,24.70
2018-05-04T16:25:42.200Z,25.20
2018-05-04T16:28:09.735Z,25.40
2018-05-04T16:30:37.642Z,25.70
2018-05-04T16:33:05.166Z,25.50
2018-05-04T16:35:33.443Z,26.40
2018-05-04T16:38:01.010Z,24.10
2018-05-04T16:40:29.308Z,25.60
2018-05-04T16:42:57.647Z,25.00
2018-05-04T16:45:25.158Z,24.00
2018-05-04T16:47:58.435Z,24.60
2018-05-04T16:50:25.945Z,24.80
2018-05-04T16:52:55.011Z,24.90
2018-05-04T16:55:22.515Z,25.40
2018-05-04T16:57:50.058Z,24.30
2018-05-04T17:00:17.561Z,24.10
2018-05-04T17:02:45.161Z,24.00
2018-05-04T17:05:13.171Z,23.90
2018-05-04T17:07:40.689Z,23.90
2018-05-04T17:10:08.950Z,23.80
2018-05-04T17:12:36.678Z,24.50
2018-05-04T17:15:04.672Z,24.70
2018-05-04T17:17:32.190Z,24.10
2018-05-04T17:19:59.958Z,24.20
2018-05-04T17:22:27.510Z,24.20
2018-05-04T17:24:56.153Z,23.90
2018-05-04T17:27:23.675Z,23.60
2018-05-04T17:29:51.189Z,23.30
2018-05-04T17:32:19.112Z,22.60
2018-05-04T17:34:46.625Z,23.70
2018-05-04T17:37:15.335Z,22.60
2018-05-04T17:39:43.684Z,22.40
2018-05-04T17:42:12.406Z,22.80
2018-05-04T17:47:08.895Z,22.50
2018-05-04T17:49:37.144Z,22.80
2018-05-04T17:52:05.799Z,22.50
2018-05-04T17:54:33.312Z,22.60
2018-05-04T17:57:00.811Z,22.20
2018-05-04T17:59:28.730Z,22.00
2018-05-04T18:01:56.294Z,21.60
2018-05-04T18:04:24.978Z,21.60
2018-05-04T18:06:53.707Z,21.40
2018-05-04T18:09:22.346Z,21.20
2018-05-04T18:11:49.855Z,20.80
2018-05-04T18:14:18.560Z,20.50
2018-05-04T18:16:46.880Z,20.10
2018-05-04T18:19:14.491Z,19.50
2018-05-04T18:24:11.249Z,19.20
2018-05-04T18:26:39.510Z,19.10
2018-05-04T18:29:07.563Z,18.80
2018-05-04T18:31:35.856Z,18.80
2018-05-04T18:34:03.376Z,18.60
2018-05-04T18:36:31.653Z,18.60
2018-05-04T18:39:00.674Z,18.50
2018-05-04T18:41:28.186Z,18.40
2018-05-04T18:43:55.678Z,18.30
2018-05-04T18:46:23.943Z,18.20
2018-05-04T18:48:51.693Z,18.20
2018-05-04T18:51:20.466Z,18.00
2018-05-04T18:53:47.989Z,17.90
2018-05-04T18:56:15.516Z,18.10
2018-05-04T20:20:40.167Z,14.50
2018-05-04T20:23:08.807Z,14.50
2018-05-04T20:25:36.376Z,14.50
2018-05-04T20:28:04.127Z,14.50
2018-05-04T20:30:32.505Z,14.40
2018-05-04T20:33:00.013Z,14.30
2018-05-04T20:35:28.177Z,14.10
2018-05-04T20:37:56.497Z,14.00
2018-05-04T20:40:24.053Z,13.90
2018-05-04T20:45:20.955Z,13.90
2018-05-04T20:47:48.461Z,13.80
2018-05-04T20:50:16.512Z,13.70
2018-05-04T21:00:11.217Z,13.40
2018-05-04T21:02:39.202Z,13.30
2018-05-04T21:05:07.161Z,13.30
2018-05-04T21:10:04.733Z,13.40
2018-05-04T21:12:33.027Z,13.20
2018-05-04T21:15:00.566Z,13.10
2018-05-04T21:17:28.835Z,13.10
2018-05-04T21:19:56.659Z,13.10
2018-05-04T21:22:25.119Z,12.90
2018-05-04T21:24:53.117Z,12.90
2018-05-04T21:27:20.735Z,12.80
2018-05-04T21:29:48.656Z,12.80
2018-05-04T21:32:16.295Z,12.80
2018-05-04T21:34:44.796Z,12.80
2018-05-04T21:37:13.176Z,12.80
2018-05-04T21:39:41.396Z,12.80
2018-05-04T21:42:09.017Z,12.60
2018-05-04T21:44:36.942Z,12.50
2018-05-04T21:47:04.550Z,12.50
2018-05-04T21:49:32.077Z,12.50
2018-05-04T21:51:59.675Z,12.40
2018-05-04T21:54:27.324Z,12.40
2018-05-04T21:56:55.663Z,12.40
2018-05-04T21:59:23.250Z,12.30
2018-05-04T22:01:51.682Z,12.30
2018-05-04T22:04:19.288Z,12.20
2018-05-04T22:06:46.821Z,12.20
2018-05-04T22:09:15.818Z,12.10
2018-05-04T22:11:43.389Z,12.10
2018-05-04T22:14:11.123Z,12.00
2018-05-04T22:16:38.734Z,12.00
2018-05-04T22:19:06.195Z,12.00
2018-05-04T22:21:34.079Z,11.90
2018-05-04T22:24:02.518Z,11.80
2018-05-04T22:26:30.397Z,11.70
2018-05-04T22:28:57.943Z,11.80
2018-05-04T22:31:26.324Z,11.90
2018-05-04T22:33:54.635Z,11.80
2018-05-04T22:36:22.159Z,11.70
2018-05-04T22:38:49.968Z,11.60
2018-05-04T22:41:17.848Z,11.60
2018-05-04T22:43:45.853Z,11.50
2018-05-04T22:46:13.368Z,11.30
2018-05-04T22:48:40.881Z,11.20
2018-05-04T22:51:09.473Z,11.30
2018-05-04T22:53:37.161Z,11.30
2018-05-04T22:56:05.761Z,11.20
2018-05-04T22:58:33.411Z,11.20
2018-05-04T23:01:00.938Z,11.00
2018-05-04T23:03:28.568Z,11.10
2018-05-04T23:05:56.993Z,11.10
2018-05-04T23:08:24.647Z,11.30
2018-05-04T23:10:53.089Z,11.10
2018-05-04T23:13:20.804Z,11.10
2018-05-04T23:15:48.776Z,11.00
2018-05-04T23:18:16.699Z,11.00
2018-05-04T23:20:44.246Z,10.90
2018-05-04T23:23:11.761Z,10.80
2018-05-04T23:25:39.271Z,10.70
2018-05-04T23:28:08.498Z,10.60
2018-05-04T23:30:36.300Z,10.60
2018-05-04T23:33:04.996Z,10.50
2018-05-04T23:35:33.388Z,10.50
2018-05-04T23:38:01.329Z,10.40
2018-05-04T23:40:28.933Z,10.40
2018-05-04T23:42:57.371Z,10.50
2018-05-04T23:45:24.955Z,10.40
2018-05-04T23:47:52.725Z,10.40
2018-05-04T23:50:20.378Z,10.30
2018-05-04T23:52:47.899Z,10.30
2018-05-04T23:55:16.179Z,10.20
2018-05-04T23:57:43.745Z,10.20
